Hlavní strana
METAR-TAF:

METAR-TAF

Letiště :

Laupheim, Německo

zeměpisná šířka: 48-13N, zeměpisná délka: 009-55E, výška: 538 m

Aktuální stav počasí

Zpráva byla vytvořena před 1 hodinou a 7 minutami, v 18:20 UTC
Východoseverovýchodní vítr 4 kt
Teplota 23°C
Vlhkost vzduchu 50%
Tlak 1017 hPa
Viditelnost 10 km a více
Skoro jasno ve výšce 4500 ft
Oblačno až skoro zataženo ve výšce 27000 ft

METAR: ETHL 271820Z 06004KT 9999 FEW045 BKN270 23/12 Q1017 BLU+

Čas: 21:27 (19:27 UTC)


TAF: chybějící

Stav a předpovědi počasí z více než 4 000 letišť (zprávy METAR a TAF).

Červené a žluté tečky na mapě představují dostupné meteorologické stanice.

Když kurzor umístíte na tečku, zobrazí se název stanice.

Pak kliknutím zobrazíte stav a předpověď počasí.

Chcete-li změnit mapu, kliknutím na zelené tlačítko se znaménkem +mapu přiblížíte, kliknutím na zelené tlačítko se znaménkem – mapu oddálíte a kliknutím na zelené šipky přejdete na sousední mapy.


METAR-TAF: